Portsmouth, Iowa
Current Conditions -  °F | °C
As of 8:15 AM on Wednesday 26 Nov 2014 (Local Time) from KHNR Reporting Station
Unknown Precip Unknown Precip  
Wind Chill: 24°   Ceiling: 700
Heat Index: 34°   Visibility: 6mi
Dew Point: 34°   Wind: 15mph
Humidity: 100%   Direction: 340°NNW
Pressure: 29.92"   Gusts: NA
Location:  41.65°N, 95.52°W
Report Text: KHNR 261415Z AUTO 34013KT 6SM -UP OVC007 01/01 A2992 RMK AO2
Loading
Personal Weather Stations






























Interactive Weather Map New forecast layout! Learn more

10-Day Weather Forecast

Advertisements
Track Severe Weather on mobile